createdAt,value
2019-01-09T00:02:27.137Z,99644.83
2019-01-09T00:04:58.060Z,99653.73
2019-01-09T00:07:29.056Z,99653.56
2019-01-09T00:09:59.932Z,99663.34
2019-01-09T00:12:30.822Z,99660.63
2019-01-09T00:15:01.656Z,99654.16
2019-01-09T00:17:32.891Z,99653.94
2019-01-09T00:20:04.148Z,99662.95
2019-01-09T00:22:34.955Z,99656.97
2019-01-09T00:25:05.999Z,99657.87
2019-01-09T00:27:36.832Z,99641.91
2019-01-09T00:30:08.025Z,99647.34
2019-01-09T00:32:39.098Z,99647.63
2019-01-09T00:35:09.973Z,99634.14
2019-01-09T00:37:41.028Z,99633.70
2019-01-09T00:40:12.120Z,99628.05
2019-01-09T00:42:43.023Z,99621.77
2019-01-09T00:45:13.875Z,99624.87
2019-01-09T00:47:44.702Z,99625.25
2019-01-09T00:50:15.796Z,99629.83
2019-01-09T00:52:46.849Z,99645.72
2019-01-09T00:55:17.943Z,99650.19
2019-01-09T00:57:49.007Z,99641.57
2019-01-09T01:00:20.323Z,99640.12
2019-01-09T01:03:37.262Z,99649.31
2019-01-09T01:06:53.987Z,99651.86
2019-01-09T01:10:04.702Z,99645.49
2019-01-09T01:13:08.498Z,99642.63
2019-01-09T01:16:11.317Z,99640.22
2019-01-09T01:19:25.339Z,99635.36
2019-01-09T01:22:43.712Z,99640.67
2019-01-09T01:26:00.597Z,99639.55
2019-01-09T01:29:02.692Z,99644.70
2019-01-09T01:32:07.158Z,99636.36
2019-01-09T01:34:50.964Z,99641.67
2019-01-09T01:37:59.968Z,99632.06
2019-01-09T01:41:27.226Z,99629.11
2019-01-09T01:44:10.386Z,99631.09
2019-01-09T01:47:23.702Z,99628.91
2019-01-09T01:50:03.300Z,99626.95
2019-01-09T01:52:57.879Z,99627.53
2019-01-09T01:55:48.276Z,99633.73
2019-01-09T01:59:00.410Z,99640.06
2019-01-09T02:02:02.118Z,99640.68
2019-01-09T02:05:13.087Z,99633.86
2019-01-09T02:07:51.309Z,99638.48
2019-01-09T02:10:49.721Z,99647.23
2019-01-09T02:13:31.436Z,99644.82
2019-01-09T02:16:29.380Z,99652.54
2019-01-09T02:19:27.860Z,99655.66
2019-01-09T02:22:36.153Z,99652.09
2019-01-09T02:25:39.612Z,99656.63
2019-01-09T02:28:43.225Z,99645.42
2019-01-09T02:31:36.493Z,99647.67
2019-01-09T02:34:07.778Z,99646.29
2019-01-09T02:36:38.805Z,99650.15
2019-01-09T02:39:09.592Z,99642.20
2019-01-09T02:41:40.442Z,99637.28
2019-01-09T02:44:11.358Z,99633.92
2019-01-09T02:46:42.143Z,99636.59
2019-01-09T02:49:13.178Z,99628.20
2019-01-09T02:51:44.044Z,99621.84
2019-01-09T02:54:14.823Z,99616.84
2019-01-09T02:56:45.608Z,99621.39
2019-01-09T02:59:16.864Z,99619.37
2019-01-09T03:01:48.715Z,99617.98
2019-01-09T03:04:20.696Z,99615.06
2019-01-09T03:06:51.855Z,99613.55
2019-01-09T03:09:22.985Z,99613.27
2019-01-09T03:11:54.372Z,99609.30
2019-01-09T03:14:25.607Z,99609.98
2019-01-09T03:16:56.717Z,99601.36
2019-01-09T03:19:28.084Z,99601.03
2019-01-09T03:21:59.368Z,99591.06
2019-01-09T03:24:30.763Z,99595.27
2019-01-09T03:27:02.382Z,99598.02
2019-01-09T03:29:33.833Z,99594.98
2019-01-09T03:32:05.238Z,99597.56
2019-01-09T03:34:36.611Z,99603.70
2019-01-09T03:37:07.735Z,99589.72
2019-01-09T03:39:39.072Z,99598.63
2019-01-09T03:42:10.210Z,99593.80
2019-01-09T03:44:40.982Z,99592.34
2019-01-09T03:47:12.358Z,99587.16
2019-01-09T03:49:43.400Z,99587.16
2019-01-09T03:52:14.710Z,99581.23
2019-01-09T03:54:45.557Z,99585.75
2019-01-09T03:57:17.139Z,99585.09
2019-01-09T03:59:48.771Z,99577.92
2019-01-09T04:02:19.790Z,99573.40
2019-01-09T04:04:50.811Z,99571.45
2019-01-09T04:07:21.827Z,99566.06
2019-01-09T04:09:53.121Z,99564.11
2019-01-09T04:12:24.643Z,99567.20
2019-01-09T04:14:55.477Z,99561.09
2019-01-09T04:17:26.256Z,99565.40
2019-01-09T04:19:57.019Z,99557.67
2019-01-09T04:22:28.029Z,99560.66
2019-01-09T04:24:58.795Z,99563.89
2019-01-09T04:27:29.815Z,99559.92
2019-01-09T04:30:01.222Z,99569.02
2019-01-09T04:32:32.292Z,99566.30
2019-01-09T04:35:03.355Z,99567.97
2019-01-09T04:37:34.258Z,99572.83
2019-01-09T04:40:05.529Z,99569.94
2019-01-09T04:42:36.378Z,99585.86
2019-01-09T04:45:07.694Z,99588.19
2019-01-09T04:47:38.739Z,99595.32
2019-01-09T04:50:09.504Z,99603.80
2019-01-09T04:52:40.287Z,99620.95
2019-01-09T04:55:11.039Z,99615.84
2019-01-09T04:57:41.819Z,99608.21
2019-01-09T05:00:12.590Z,99612.51
2019-01-09T05:02:43.678Z,99612.95
2019-01-09T05:05:14.436Z,99606.69
2019-01-09T05:07:45.439Z,99593.67
2019-01-09T05:10:16.307Z,99600.48
2019-01-09T05:12:47.090Z,99604.72
2019-01-09T05:15:17.868Z,99609.38
2019-01-09T05:17:48.658Z,99606.71
2019-01-09T05:20:19.769Z,99601.03
2019-01-09T05:22:50.790Z,99611.34
2019-01-09T05:25:21.560Z,99593.61
2019-01-09T05:27:52.355Z,99586.88
2019-01-09T05:30:23.468Z,99592.53
2019-01-09T05:32:54.277Z,99588.97
2019-01-09T05:35:25.293Z,99588.58
2019-01-09T05:37:56.077Z,99588.05
2019-01-09T05:40:27.089Z,99580.50
2019-01-09T05:42:57.888Z,99592.06
2019-01-09T05:45:28.912Z,99592.22
2019-01-09T05:47:59.979Z,99591.83
2019-01-09T05:50:31.279Z,99591.06
2019-01-09T05:53:02.471Z,99599.75
2019-01-09T05:55:33.809Z,99593.26
2019-01-09T05:58:05.263Z,99581.41
2019-01-09T06:00:39.422Z,99582.64
2019-01-09T06:03:10.232Z,99588.44
2019-01-09T06:05:41.083Z,99592.06
2019-01-09T06:08:12.262Z,99588.99
2019-01-09T06:10:43.349Z,99594.65
2019-01-09T06:13:14.217Z,99598.86
2019-01-09T06:15:45.126Z,99589.27
2019-01-09T06:18:15.995Z,99590.16
2019-01-09T06:20:47.079Z,99595.50
2019-01-09T06:23:17.944Z,99589.55
2019-01-09T06:25:49.284Z,99590.23
2019-01-09T06:28:20.471Z,99586.53
2019-01-09T06:30:51.242Z,99591.16
2019-01-09T06:33:22.125Z,99587.08
2019-01-09T06:35:53.215Z,99586.03
2019-01-09T06:38:24.012Z,99598.83
2019-01-09T06:40:55.110Z,99596.91
2019-01-09T06:43:26.409Z,99602.52
2019-01-09T06:45:57.277Z,99593.79
2019-01-09T06:48:28.411Z,99605.72
2019-01-09T06:50:59.845Z,99592.61
2019-01-09T06:53:30.903Z,99608.84
2019-01-09T06:56:01.901Z,99609.59
2019-01-09T06:58:33.178Z,99615.80
2019-01-09T07:01:04.170Z,99617.98
2019-01-09T07:03:35.230Z,99612.34
2019-01-09T07:06:06.450Z,99615.91
2019-01-09T07:08:37.577Z,99618.03
2019-01-09T07:11:08.501Z,99617.70
2019-01-09T07:13:39.550Z,99611.22
2019-01-09T07:16:10.395Z,99614.27
2019-01-09T07:18:41.272Z,99617.19
2019-01-09T07:21:12.310Z,99614.25
2019-01-09T07:23:43.523Z,99615.62
2019-01-09T07:26:14.627Z,99619.17
2019-01-09T07:28:46.000Z,99619.79
2019-01-09T07:31:17.141Z,99615.03
2019-01-09T07:33:48.242Z,99625.99
2019-01-09T07:36:19.640Z,99623.64
2019-01-09T07:38:50.834Z,99626.20
2019-01-09T07:41:21.936Z,99627.63
2019-01-09T07:43:52.960Z,99619.77
2019-01-09T07:46:23.809Z,99626.13
2019-01-09T07:48:54.858Z,99632.30
2019-01-09T07:51:25.693Z,99628.01
2019-01-09T07:53:57.558Z,99630.33
2019-01-09T07:56:28.394Z,99636.00
2019-01-09T07:58:59.196Z,99634.83
2019-01-09T08:01:30.353Z,99633.91
2019-01-09T08:04:01.144Z,99644.06
2019-01-09T08:06:32.646Z,99643.13
2019-01-09T08:09:05.289Z,99638.14
2019-01-09T08:11:36.447Z,99640.06
2019-01-09T08:14:08.234Z,99641.60
2019-01-09T08:16:39.108Z,99651.61
2019-01-09T08:19:09.981Z,99651.52
2019-01-09T08:21:41.250Z,99651.83
2019-01-09T08:24:12.301Z,99657.20
2019-01-09T08:26:43.150Z,99655.63
2019-01-09T08:29:14.324Z,99663.19
2019-01-09T08:31:45.132Z,99660.17
2019-01-09T08:34:16.033Z,99661.86
2019-01-09T08:36:46.964Z,99669.05
2019-01-09T08:39:17.838Z,99665.81
2019-01-09T08:41:49.008Z,99677.06
2019-01-09T08:44:19.877Z,99672.71
2019-01-09T08:46:50.661Z,99669.84
2019-01-09T08:49:21.552Z,99668.27
2019-01-09T08:51:52.952Z,99662.98
2019-01-09T08:54:24.009Z,99673.87
2019-01-09T08:56:55.100Z,99672.11
2019-01-09T08:59:26.409Z,99676.89
2019-01-09T09:01:57.200Z,99674.50
2019-01-09T09:04:28.315Z,99670.33
2019-01-09T09:06:59.396Z,99677.28
2019-01-09T09:09:32.001Z,99674.05
2019-01-09T09:12:03.089Z,99680.09
2019-01-09T09:14:33.882Z,99679.41
2019-01-09T09:17:04.958Z,99676.60
2019-01-09T09:19:35.817Z,99681.82
2019-01-09T09:22:07.120Z,99687.27
2019-01-09T09:24:38.138Z,99684.85
2019-01-09T09:27:08.905Z,99695.87
2019-01-09T09:29:39.698Z,99696.72
2019-01-09T09:32:10.617Z,99701.11
2019-01-09T09:34:41.407Z,99697.47
2019-01-09T09:37:12.181Z,99700.27
2019-01-09T09:39:43.055Z,99699.74
2019-01-09T09:42:13.893Z,99705.41
2019-01-09T09:44:44.682Z,99714.26
2019-01-09T09:47:15.451Z,99702.61
2019-01-09T09:49:46.552Z,99722.42
2019-01-09T09:52:17.648Z,99719.84
2019-01-09T09:54:48.635Z,99723.34
2019-01-09T09:57:19.900Z,99717.89
2019-01-09T09:59:50.691Z,99718.73
2019-01-09T10:02:21.542Z,99725.60
2019-01-09T10:04:52.347Z,99726.11
2019-01-09T10:07:23.135Z,99716.84
2019-01-09T10:09:54.654Z,99724.02
2019-01-09T10:12:25.434Z,99729.92
2019-01-09T10:14:56.644Z,99733.37
2019-01-09T10:17:27.675Z,99727.17
2019-01-09T10:19:58.546Z,99728.45
2019-01-09T10:22:29.637Z,99730.05
2019-01-09T10:25:00.577Z,99735.30
2019-01-09T10:27:31.583Z,99738.62
2019-01-09T10:30:02.458Z,99744.65
2019-01-09T10:32:33.309Z,99730.73
2019-01-09T10:35:04.586Z,99736.41
2019-01-09T10:37:35.657Z,99736.41
2019-01-09T10:40:07.500Z,99737.77
2019-01-09T10:42:38.427Z,99740.80
2019-01-09T10:45:10.413Z,99735.27
2019-01-09T10:47:41.344Z,99741.63
2019-01-09T10:50:12.996Z,99738.16
2019-01-09T10:52:43.785Z,99729.73
2019-01-09T10:55:15.391Z,99726.58
2019-01-09T10:57:46.322Z,99726.94
2019-01-09T11:00:22.559Z,99732.00
2019-01-09T11:02:53.524Z,99723.30
2019-01-09T11:05:24.660Z,99726.86
2019-01-09T11:07:55.522Z,99729.14
2019-01-09T11:10:26.376Z,99724.90
2019-01-09T11:12:57.384Z,99723.06
2019-01-09T11:15:28.407Z,99720.66
2019-01-09T11:17:59.247Z,99711.27
2019-01-09T11:20:30.043Z,99715.08
2019-01-09T11:23:00.824Z,99710.36
2019-01-09T11:25:31.705Z,99704.73
2019-01-09T11:28:02.776Z,99700.59
2019-01-09T11:30:33.909Z,99698.11
2019-01-09T11:33:04.754Z,99700.00
2019-01-09T11:35:35.857Z,99706.12
2019-01-09T11:38:06.628Z,99698.56
2019-01-09T11:40:37.485Z,99695.70
2019-01-09T11:43:08.492Z,99701.20
2019-01-09T11:45:39.662Z,99699.37
2019-01-09T11:48:10.532Z,99697.73
2019-01-09T11:50:41.403Z,99696.66
2019-01-09T11:53:12.519Z,99690.48
2019-01-09T11:55:43.382Z,99684.54
2019-01-09T11:58:15.605Z,99689.88
2019-01-09T12:00:46.476Z,99687.91
2019-01-09T12:03:17.425Z,99690.20
2019-01-09T12:05:48.235Z,99691.42
2019-01-09T12:08:19.316Z,99690.88
2019-01-09T12:10:50.227Z,99687.34
2019-01-09T12:13:20.980Z,99685.77
2019-01-09T12:15:51.768Z,99692.20
2019-01-09T12:18:22.630Z,99698.05
2019-01-09T12:20:53.479Z,99697.37
2019-01-09T12:23:24.572Z,99695.17
2019-01-09T12:25:55.446Z,99691.85
2019-01-09T12:28:26.454Z,99693.84
2019-01-09T12:30:57.565Z,99692.62
2019-01-09T12:33:28.409Z,99696.64
2019-01-09T12:35:59.391Z,99706.24
2019-01-09T12:38:30.110Z,99697.17
2019-01-09T12:41:01.413Z,99705.55
2019-01-09T12:43:32.484Z,99700.28
2019-01-09T12:46:03.597Z,99702.63
2019-01-09T12:48:34.613Z,99706.03
2019-01-09T12:51:05.530Z,99710.41
2019-01-09T12:53:36.405Z,99708.66
2019-01-09T12:56:07.830Z,99709.13
2019-01-09T12:58:38.610Z,99714.19
2019-01-09T13:01:09.721Z,99721.52
2019-01-09T13:03:40.499Z,99721.73
2019-01-09T13:06:11.635Z,99728.77
2019-01-09T13:08:42.425Z,99729.17
2019-01-09T13:11:13.538Z,99726.81
2019-01-09T13:13:44.298Z,99734.34
2019-01-09T13:16:15.161Z,99734.96
2019-01-09T13:18:46.231Z,99724.50
2019-01-09T13:21:17.334Z,99731.02
2019-01-09T13:23:48.381Z,99729.13
2019-01-09T13:26:19.547Z,99727.56
2019-01-09T13:28:50.380Z,99726.64
2019-01-09T13:31:21.408Z,99723.39
2019-01-09T13:33:52.510Z,99720.81
2019-01-09T13:36:23.372Z,99722.89
2019-01-09T13:38:54.135Z,99721.22
2019-01-09T13:41:25.299Z,99728.09
2019-01-09T13:43:56.382Z,99728.18
2019-01-09T13:46:27.181Z,99723.83
2019-01-09T13:48:58.183Z,99726.25
2019-01-09T13:51:29.550Z,99727.69
2019-01-09T13:54:00.397Z,99728.77
2019-01-09T13:56:31.500Z,99735.78
2019-01-09T13:59:02.514Z,99736.56
2019-01-09T14:01:33.614Z,99737.37
2019-01-09T14:04:04.547Z,99738.98
2019-01-09T14:06:35.537Z,99743.79
2019-01-09T14:09:09.110Z,99744.50
2019-01-09T14:11:39.892Z,99744.80
2019-01-09T14:14:10.744Z,99747.67
2019-01-09T14:16:41.747Z,99745.50
2019-01-09T14:19:12.993Z,99755.15
2019-01-09T14:21:44.262Z,99763.39
2019-01-09T14:24:15.591Z,99761.78
2019-01-09T14:26:46.699Z,99762.08
2019-01-09T14:29:17.793Z,99761.92
2019-01-09T14:31:48.972Z,99764.64
2019-01-09T14:34:19.742Z,99768.60
2019-01-09T14:36:50.598Z,99777.92
2019-01-09T14:39:21.609Z,99774.77
2019-01-09T14:41:52.628Z,99779.92
2019-01-09T14:44:23.899Z,99777.69
2019-01-09T14:46:54.693Z,99772.75
2019-01-09T14:49:25.705Z,99778.58
2019-01-09T14:51:56.508Z,99774.33
2019-01-09T14:54:27.294Z,99770.13
2019-01-09T14:56:58.095Z,99778.28
2019-01-09T14:59:29.106Z,99783.56
2019-01-09T15:01:59.979Z,99798.20
2019-01-09T15:04:31.074Z,99794.70
2019-01-09T15:07:02.043Z,99796.61
2019-01-09T15:09:32.918Z,99796.72
2019-01-09T15:12:04.075Z,99800.76
2019-01-09T15:14:35.106Z,99805.90
2019-01-09T15:17:05.958Z,99800.66
2019-01-09T15:19:37.134Z,99807.12
2019-01-09T15:22:08.042Z,99808.94
2019-01-09T15:24:39.239Z,99809.24
2019-01-09T15:27:10.296Z,99817.59
2019-01-09T15:29:41.405Z,99813.72
2019-01-09T15:32:12.492Z,99819.38
2019-01-09T15:34:43.681Z,99820.02
2019-01-09T15:37:14.771Z,99821.95
2019-01-09T15:39:45.584Z,99819.57
2019-01-09T15:42:16.635Z,99825.23
2019-01-09T15:44:47.678Z,99830.12
2019-01-09T15:47:18.518Z,99832.30
2019-01-09T15:49:49.503Z,99835.41
2019-01-09T15:52:20.666Z,99839.56
2019-01-09T15:54:51.774Z,99839.39
2019-01-09T15:57:22.567Z,99836.44
2019-01-09T15:59:53.359Z,99845.54
2019-01-09T16:02:24.364Z,99852.77
2019-01-09T16:04:55.465Z,99849.27
2019-01-09T16:07:26.247Z,99853.09
2019-01-09T16:09:57.045Z,99858.50
2019-01-09T16:12:28.050Z,99850.22
2019-01-09T16:14:58.841Z,99852.53
2019-01-09T16:17:29.626Z,99854.45
2019-01-09T16:20:01.811Z,99856.92
2019-01-09T16:22:32.841Z,99864.72
2019-01-09T16:25:03.997Z,99861.26
2019-01-09T16:27:35.254Z,99863.78
2019-01-09T16:30:12.190Z,99867.18
2019-01-09T16:32:43.146Z,99868.38
2019-01-09T16:35:14.531Z,99861.53
2019-01-09T16:37:45.989Z,99868.34
2019-01-09T16:40:23.216Z,99869.67
2019-01-09T16:42:50.007Z,99880.91
2019-01-09T16:45:20.868Z,99872.76
2019-01-09T16:47:51.848Z,99870.56
2019-01-09T16:50:23.191Z,99874.36
2019-01-09T16:52:54.044Z,99877.11
2019-01-09T16:55:24.969Z,99879.81
2019-01-09T16:57:55.812Z,99879.06
2019-01-09T17:00:28.389Z,99893.48
2019-01-09T17:02:59.180Z,99887.07
2019-01-09T17:05:29.986Z,99887.38
2019-01-09T17:08:01.155Z,99888.47
2019-01-09T17:10:33.042Z,99883.73
2019-01-09T17:13:03.886Z,99891.57
2019-01-09T17:15:34.920Z,99886.44
2019-01-09T17:18:06.590Z,99887.31
2019-01-09T17:20:37.380Z,99895.30
2019-01-09T17:23:08.462Z,99900.99
2019-01-09T17:25:39.248Z,99898.98
2019-01-09T17:28:10.263Z,99903.60
2019-01-09T17:30:41.131Z,99910.05
2019-01-09T17:33:12.261Z,99911.70
2019-01-09T17:35:43.270Z,99921.06
2019-01-09T17:38:16.108Z,99922.73
2019-01-09T17:40:47.089Z,99922.34
2019-01-09T17:43:17.941Z,99925.70
2019-01-09T17:45:48.729Z,99935.45
2019-01-09T17:48:20.205Z,99937.56
2019-01-09T17:50:51.299Z,99938.02
2019-01-09T17:53:22.155Z,99948.67
2019-01-09T17:55:53.462Z,99945.27
2019-01-09T17:58:24.505Z,99945.59
2019-01-09T18:00:55.958Z,99953.81
2019-01-09T18:03:26.954Z,99963.95
2019-01-09T18:05:57.965Z,99958.42
2019-01-09T18:08:29.045Z,99964.22
2019-01-09T18:11:00.522Z,99967.67
2019-01-09T18:13:31.783Z,99973.13
2019-01-09T18:16:02.902Z,99971.03
2019-01-09T18:18:34.645Z,99970.06
2019-01-09T18:21:06.287Z,99964.09
2019-01-09T18:23:37.074Z,99968.20
2019-01-09T18:26:07.950Z,99974.62
2019-01-09T18:28:38.729Z,99976.80
2019-01-09T18:31:50.304Z,99977.05
2019-01-09T18:34:37.829Z,99975.56
2019-01-09T18:37:38.599Z,99985.16
2019-01-09T18:40:48.747Z,99992.07
2019-01-09T18:43:39.656Z,99988.80
2019-01-09T18:46:56.554Z,99992.33
2019-01-09T18:49:45.241Z,99991.41
2019-01-09T18:52:42.007Z,99998.78
2019-01-09T18:55:12.894Z,99997.44
2019-01-09T18:57:43.981Z,100003.61
2019-01-09T19:00:21.491Z,100004.73
2019-01-09T19:02:53.647Z,100004.80
2019-01-09T19:05:24.817Z,100003.95
2019-01-09T19:07:55.669Z,100009.08
2019-01-09T19:10:26.866Z,100009.00
2019-01-09T19:12:57.655Z,100014.20
2019-01-09T19:15:29.069Z,100017.10
2019-01-09T19:18:00.153Z,100018.58
2019-01-09T19:20:31.164Z,100020.23
2019-01-09T19:23:02.088Z,100028.09
2019-01-09T19:25:33.025Z,100023.67
2019-01-09T19:28:04.106Z,100036.06
2019-01-09T19:30:34.990Z,100033.78
2019-01-09T19:33:06.124Z,100046.23
2019-01-09T19:35:37.470Z,100042.95
2019-01-09T19:38:08.702Z,100053.26
2019-01-09T19:40:39.799Z,100052.53
2019-01-09T19:43:10.653Z,100054.54
2019-01-09T19:45:42.137Z,100053.82
2019-01-09T19:48:12.987Z,100053.82
2019-01-09T19:50:44.174Z,100063.00
2019-01-09T19:53:15.029Z,100064.00
2019-01-09T19:55:46.243Z,100066.12
2019-01-09T19:58:17.416Z,100066.48
2019-01-09T20:00:48.830Z,100065.69
2019-01-09T20:03:28.635Z,100071.01
2019-01-09T20:05:59.810Z,100074.25
2019-01-09T20:08:30.715Z,100079.20
2019-01-09T20:11:01.923Z,100087.01
2019-01-09T20:13:32.753Z,100085.22
2019-01-09T20:16:03.684Z,100091.51
2019-01-09T20:18:34.804Z,100091.91
2019-01-09T20:21:05.935Z,100096.23
2019-01-09T20:23:37.118Z,100101.00
2019-01-09T20:26:08.656Z,100094.30
2019-01-09T20:28:39.656Z,100096.35
2019-01-09T20:31:10.523Z,100099.03
2019-01-09T20:33:41.508Z,100098.15
2019-01-09T20:36:14.315Z,100102.66
2019-01-09T20:38:45.722Z,100106.06
2019-01-09T20:41:17.062Z,100107.89
2019-01-09T20:43:48.219Z,100099.25
2019-01-09T20:46:19.397Z,100109.80
2019-01-09T20:48:50.353Z,100115.80
2019-01-09T20:51:21.796Z,100115.52
2019-01-09T20:53:53.194Z,100115.21
2019-01-09T20:56:24.526Z,100119.13
2019-01-09T20:58:55.626Z,100128.91
2019-01-09T21:01:26.432Z,100133.97
2019-01-09T21:03:57.505Z,100134.70
2019-01-09T21:06:28.445Z,100136.53
2019-01-09T21:09:00.229Z,100141.00
2019-01-09T21:11:31.523Z,100142.72
2019-01-09T21:14:02.386Z,100151.92
2019-01-09T21:16:33.250Z,100154.41
2019-01-09T21:19:04.190Z,100150.05
2019-01-09T21:21:35.071Z,100151.95
2019-01-09T21:24:06.129Z,100155.50
2019-01-09T21:26:36.999Z,100157.40
2019-01-09T21:29:07.857Z,100150.47
2019-01-09T21:31:38.952Z,100156.41
2019-01-09T21:34:10.294Z,100154.31
2019-01-09T21:36:41.227Z,100166.96
2019-01-09T21:39:12.066Z,100161.16
2019-01-09T21:41:43.237Z,100164.19
2019-01-09T21:44:15.981Z,100162.33
2019-01-09T21:46:47.129Z,100173.56
2019-01-09T21:49:17.897Z,100175.35
2019-01-09T21:51:49.004Z,100175.49
2019-01-09T21:54:20.142Z,100178.89
2019-01-09T21:56:51.263Z,100178.02
2019-01-09T21:59:23.343Z,100179.09
2019-01-09T22:01:55.120Z,100184.42
2019-01-09T22:04:26.418Z,100185.41
2019-01-09T22:06:57.463Z,100186.17
2019-01-09T22:09:28.353Z,100189.34
2019-01-09T22:12:02.479Z,100189.55
2019-01-09T22:14:32.019Z,100182.73
2019-01-09T22:17:03.386Z,100185.30
2019-01-09T22:19:34.257Z,100184.02
2019-01-09T22:22:05.270Z,100191.20
2019-01-09T22:24:36.728Z,100189.92
2019-01-09T22:27:07.831Z,100185.94
2019-01-09T22:29:39.039Z,100194.47
2019-01-09T22:32:10.046Z,100192.58
2019-01-09T22:34:40.894Z,100194.37
2019-01-09T22:37:11.983Z,100198.21
2019-01-09T22:39:43.065Z,100199.80
2019-01-09T22:42:13.947Z,100203.88
2019-01-09T22:44:44.878Z,100207.91
2019-01-09T22:47:16.035Z,100205.55
2019-01-09T22:49:47.347Z,100203.23
2019-01-09T22:52:18.625Z,100204.84
2019-01-09T22:54:49.637Z,100209.03
2019-01-09T22:57:20.447Z,100207.27
2019-01-09T22:59:51.498Z,100202.05
2019-01-09T23:02:23.820Z,100204.41
2019-01-09T23:04:54.951Z,100207.48
2019-01-09T23:07:25.843Z,100210.03
2019-01-09T23:09:56.931Z,100222.74
2019-01-09T23:12:28.345Z,100217.98
2019-01-09T23:14:59.439Z,100216.61
2019-01-09T23:17:30.335Z,100212.13
2019-01-09T23:20:01.639Z,100211.42
2019-01-09T23:22:32.600Z,100216.34
2019-01-09T23:25:03.855Z,100215.73
2019-01-09T23:27:35.163Z,100203.23
2019-01-09T23:30:08.564Z,100214.05
2019-01-09T23:32:39.635Z,100217.83
2019-01-09T23:35:10.607Z,100229.42
2019-01-09T23:37:41.812Z,100226.59
2019-01-09T23:40:13.712Z,100228.55
2019-01-09T23:42:44.607Z,100223.83
2019-01-09T23:45:16.070Z,100223.33
2019-01-09T23:47:46.983Z,100224.70
2019-01-09T23:50:17.854Z,100229.83
2019-01-09T23:52:48.672Z,100234.38
2019-01-09T23:55:19.836Z,100234.08
2019-01-09T23:57:51.227Z,100232.26
